createdAt,value
2022-12-12T00:01:33.220Z,68.32
2022-12-12T00:04:03.752Z,69.82
2022-12-12T00:06:34.359Z,60.17
2022-12-12T00:09:05.546Z,68.03
2022-12-12T00:11:35.557Z,55.53
2022-12-12T00:14:06.087Z,51.00
2022-12-12T00:16:35.992Z,58.10
2022-12-12T00:19:05.833Z,58.70
2022-12-12T00:21:35.758Z,67.83
2022-12-12T00:24:05.874Z,55.45
2022-12-12T00:26:37.331Z,62.33
2022-12-12T00:29:07.627Z,64.95
2022-12-12T00:31:37.690Z,61.17
2022-12-12T00:34:07.626Z,82.65
2022-12-12T00:36:37.542Z,94.15
2022-12-12T00:39:07.974Z,71.18
2022-12-12T00:41:39.585Z,63.08
2022-12-12T00:44:09.399Z,64.53
2022-12-12T00:46:39.273Z,79.07
2022-12-12T00:49:09.247Z,71.37
2022-12-12T00:51:39.336Z,78.25
2022-12-12T00:54:09.294Z,76.82
2022-12-12T00:56:39.401Z,78.35
2022-12-12T00:59:09.891Z,77.57
2022-12-12T01:01:40.195Z,90.88
2022-12-12T01:04:10.055Z,102.90
2022-12-12T01:06:39.962Z,109.80
2022-12-12T01:09:09.983Z,115.28
2022-12-12T01:11:39.805Z,156.20
2022-12-12T01:14:09.888Z,167.83
2022-12-12T01:16:39.918Z,140.98
2022-12-12T01:19:10.406Z,136.75
2022-12-12T01:21:40.253Z,125.93
2022-12-12T01:24:10.327Z,121.57
2022-12-12T01:26:40.175Z,130.65
2022-12-12T01:29:10.034Z,136.77
2022-12-12T01:31:40.111Z,122.70
2022-12-12T01:34:09.985Z,135.50
2022-12-12T01:36:39.926Z,135.20
2022-12-12T01:39:09.761Z,118.55
2022-12-12T01:41:40.018Z,110.67
2022-12-12T01:44:45.252Z,117.93
2022-12-12T01:47:17.655Z,102.45
2022-12-12T01:50:00.005Z,113.00
2022-12-12T01:52:34.063Z,118.75
2022-12-12T01:55:07.597Z,93.38
2022-12-12T01:57:42.415Z,96.55
2022-12-12T02:00:13.423Z,103.72
2022-12-12T02:02:47.739Z,98.85
2022-12-12T02:05:28.976Z,96.00
2022-12-12T02:08:03.164Z,100.97
2022-12-12T02:10:35.025Z,117.15
2022-12-12T02:13:10.394Z,104.88
2022-12-12T02:15:53.034Z,122.82
2022-12-12T02:18:37.253Z,110.45
2022-12-12T02:21:45.944Z,114.90
2022-12-12T02:24:38.421Z,122.47
2022-12-12T02:27:46.669Z,109.40
2022-12-12T02:30:23.838Z,108.22
2022-12-12T02:33:19.600Z,112.07
2022-12-12T02:36:15.609Z,136.13
2022-12-12T02:39:11.838Z,129.95
2022-12-12T02:41:48.079Z,123.53
2022-12-12T02:44:35.893Z,121.10
2022-12-12T02:47:23.232Z,120.90
2022-12-12T02:50:15.130Z,125.68
2022-12-12T02:52:47.957Z,114.20
2022-12-12T02:55:19.828Z,138.45
2022-12-12T02:57:51.572Z,133.20
2022-12-12T03:00:23.338Z,138.02
2022-12-12T03:03:28.156Z,121.03
2022-12-12T03:06:48.432Z,136.75
2022-12-12T03:09:35.727Z,136.15
2022-12-12T03:12:13.217Z,140.75
2022-12-12T03:14:57.045Z,125.28
2022-12-12T03:17:45.429Z,133.50
2022-12-12T03:20:40.143Z,143.30
2022-12-12T03:23:21.270Z,141.70
2022-12-12T03:26:05.907Z,137.57
2022-12-12T03:28:41.958Z,135.00
2022-12-12T03:31:14.509Z,141.05
2022-12-12T03:33:51.023Z,135.68
2022-12-12T03:36:37.007Z,160.00
2022-12-12T03:39:17.586Z,165.15
2022-12-12T03:41:58.560Z,124.45
2022-12-12T03:44:41.080Z,139.60
2022-12-12T03:47:20.918Z,142.15
2022-12-12T03:50:00.643Z,141.75
2022-12-12T03:52:41.673Z,136.80
2022-12-12T03:55:27.558Z,134.75
2022-12-12T03:58:07.601Z,132.70
2022-12-12T04:00:39.099Z,135.68
2022-12-12T04:03:28.480Z,133.15
2022-12-12T04:06:29.910Z,126.85
2022-12-12T04:09:21.772Z,140.15
2022-12-12T04:12:32.065Z,123.78
2022-12-12T04:15:29.646Z,135.02
2022-12-12T04:18:32.995Z,116.72
2022-12-12T04:21:42.479Z,126.55
2022-12-12T04:24:43.481Z,103.90
2022-12-12T04:27:24.400Z,117.78
2022-12-12T04:30:16.932Z,118.57
2022-12-12T04:33:07.814Z,118.05
2022-12-12T04:35:43.696Z,105.97
2022-12-12T04:38:21.175Z,105.90
2022-12-12T04:40:56.832Z,112.35
2022-12-12T04:43:35.895Z,131.48
2022-12-12T04:46:11.284Z,128.27
2022-12-12T04:49:04.957Z,119.43
2022-12-12T04:51:39.810Z,125.75
2022-12-12T04:54:33.333Z,102.00
2022-12-12T04:57:07.458Z,113.38
2022-12-12T04:59:37.810Z,119.57
2022-12-12T05:02:34.273Z,98.47
2022-12-12T05:05:25.955Z,111.10
2022-12-12T05:08:04.881Z,111.05
2022-12-12T05:10:35.285Z,105.70
2022-12-12T05:15:34.645Z,95.25
2022-12-12T05:18:10.003Z,99.30
2022-12-12T05:20:43.942Z,93.03
2022-12-12T05:23:13.920Z,99.60
2022-12-12T05:25:44.168Z,113.20
2022-12-12T05:28:14.401Z,110.63
2022-12-12T05:30:44.464Z,111.15
2022-12-12T05:33:14.586Z,113.72
2022-12-12T05:35:44.410Z,108.00
2022-12-12T05:38:14.314Z,108.63
2022-12-12T05:40:44.230Z,113.70
2022-12-12T05:43:14.228Z,123.57
2022-12-12T05:45:44.152Z,113.40
2022-12-12T05:48:17.303Z,112.13
2022-12-12T05:50:50.956Z,105.75
2022-12-12T05:53:21.412Z,112.05
2022-12-12T05:55:53.623Z,123.43
2022-12-12T05:58:23.939Z,126.65
2022-12-12T06:03:27.326Z,130.07
2022-12-12T06:05:57.160Z,113.00
2022-12-12T06:08:30.025Z,123.32
2022-12-12T06:11:00.065Z,112.32
2022-12-12T06:13:29.861Z,123.95
2022-12-12T06:15:59.757Z,104.57
2022-12-12T06:18:29.852Z,111.20
2022-12-12T06:21:09.672Z,96.25
2022-12-12T06:23:41.420Z,108.25
2022-12-12T06:26:14.737Z,112.38
2022-12-12T06:28:45.250Z,130.70
2022-12-12T06:31:16.498Z,121.00
2022-12-12T06:33:47.484Z,115.57
2022-12-12T06:36:25.614Z,119.75
2022-12-12T06:38:58.655Z,124.95
2022-12-12T06:41:32.072Z,118.18
2022-12-12T06:44:02.173Z,111.18
2022-12-12T06:46:32.903Z,82.32
2022-12-12T06:49:03.063Z,79.30
2022-12-12T06:51:35.014Z,79.50
2022-12-12T06:54:06.669Z,76.85
2022-12-12T06:56:36.645Z,90.97
2022-12-12T06:59:07.151Z,75.43
2022-12-12T07:01:37.000Z,81.13
2022-12-12T07:04:07.442Z,70.45
2022-12-12T07:06:38.005Z,83.55
2022-12-12T07:09:09.902Z,69.18
2022-12-12T07:11:41.101Z,86.82
2022-12-12T07:14:13.483Z,71.53
2022-12-12T07:16:43.357Z,61.97
2022-12-12T07:19:13.330Z,62.15
2022-12-12T07:21:43.359Z,68.72
2022-12-12T07:24:14.386Z,52.30
2022-12-12T07:26:44.422Z,60.25
2022-12-12T07:29:14.649Z,74.72
2022-12-12T07:34:13.989Z,49.67
2022-12-12T07:36:43.965Z,43.17
2022-12-12T07:39:20.171Z,42.40
2022-12-12T07:41:50.922Z,44.80
2022-12-12T07:44:20.782Z,61.30
2022-12-12T07:46:50.813Z,73.20
2022-12-12T07:49:22.080Z,55.30
2022-12-12T07:51:51.935Z,57.85
2022-12-12T07:54:22.017Z,67.30
2022-12-12T07:56:52.295Z,70.80
2022-12-12T08:01:51.773Z,69.38
2022-12-12T08:06:57.629Z,82.30
2022-12-12T08:09:30.856Z,55.80
2022-12-12T08:12:02.201Z,47.83
2022-12-12T08:14:32.288Z,44.50
2022-12-12T08:17:02.662Z,46.05
2022-12-12T08:19:33.602Z,40.72
2022-12-12T08:22:04.597Z,31.48
2022-12-12T08:24:34.784Z,34.05
2022-12-12T08:29:34.387Z,30.23
2022-12-12T08:32:07.536Z,32.00
2022-12-12T08:34:37.609Z,28.25
2022-12-12T08:37:08.270Z,27.17
2022-12-12T08:39:38.981Z,31.48
2022-12-12T08:42:09.132Z,43.03
2022-12-12T08:47:08.457Z,35.60
2022-12-12T08:49:38.688Z,25.23
2022-12-12T08:54:42.052Z,32.22
2022-12-12T08:57:11.988Z,39.22
2022-12-12T08:59:42.431Z,36.88
2022-12-12T09:02:15.535Z,27.95
2022-12-12T09:04:46.104Z,41.30
2022-12-12T09:07:16.784Z,28.63
2022-12-12T09:09:47.095Z,28.73
2022-12-12T09:12:17.972Z,26.10
2022-12-12T09:14:47.923Z,26.05
2022-12-12T09:17:17.854Z,21.27
2022-12-12T09:19:47.912Z,23.45
2022-12-12T09:22:19.513Z,28.80
2022-12-12T09:24:49.781Z,25.52
2022-12-12T09:27:19.909Z,28.42
2022-12-12T09:32:24.349Z,27.30
2022-12-12T09:34:55.058Z,22.83
2022-12-12T09:37:27.571Z,32.30
2022-12-12T09:39:57.506Z,29.98
2022-12-12T09:42:30.982Z,20.90
2022-12-12T09:45:07.543Z,31.73
2022-12-12T09:47:58.197Z,26.05
2022-12-12T09:50:40.136Z,19.70
2022-12-12T09:53:16.347Z,24.92
2022-12-12T09:56:04.376Z,23.08
2022-12-12T09:59:00.030Z,23.70
2022-12-12T10:01:53.761Z,28.05
2022-12-12T10:04:51.066Z,27.02
2022-12-12T10:07:43.920Z,40.78
2022-12-12T10:10:45.525Z,33.33
2022-12-12T10:13:21.656Z,33.00
2022-12-12T10:15:56.954Z,27.48
2022-12-12T10:18:47.921Z,32.60
2022-12-12T10:21:28.128Z,36.15
2022-12-12T10:24:16.223Z,29.15
2022-12-12T10:26:46.788Z,35.53
2022-12-12T10:29:21.772Z,34.65
2022-12-12T10:32:27.283Z,32.70
2022-12-12T10:35:27.103Z,30.70
2022-12-12T10:38:28.034Z,45.60
2022-12-12T10:41:26.724Z,37.65
2022-12-12T10:44:28.084Z,53.85
2022-12-12T10:47:09.096Z,43.65
2022-12-12T10:49:45.126Z,42.40
2022-12-12T10:52:24.182Z,49.90
2022-12-12T10:55:05.053Z,41.20
2022-12-12T10:57:41.965Z,49.83
2022-12-12T11:00:33.410Z,41.30
2022-12-12T11:03:33.073Z,43.83
2022-12-12T11:06:12.653Z,44.17
2022-12-12T11:08:57.133Z,51.97
2022-12-12T11:11:32.054Z,44.70
2022-12-12T11:14:04.672Z,44.10
2022-12-12T11:16:49.910Z,49.67
2022-12-12T11:19:29.025Z,59.28
2022-12-12T11:22:05.162Z,55.53
2022-12-12T11:24:36.765Z,55.97
2022-12-12T11:27:09.620Z,70.25
2022-12-12T11:29:47.878Z,60.42
2022-12-12T11:32:26.124Z,56.47
2022-12-12T11:34:59.131Z,53.47
2022-12-12T11:37:39.272Z,52.58
2022-12-12T11:40:21.968Z,55.17
2022-12-12T11:42:52.367Z,67.20
2022-12-12T11:47:56.275Z,65.47
2022-12-12T11:50:28.799Z,58.30
2022-12-12T11:53:03.956Z,80.43
2022-12-12T11:56:03.005Z,59.05
2022-12-12T11:58:45.147Z,71.45
2022-12-12T12:01:37.438Z,70.00
2022-12-12T12:04:40.093Z,61.63
2022-12-12T12:07:42.630Z,76.25
2022-12-12T12:10:43.196Z,74.47
2022-12-12T12:13:51.881Z,96.68
2022-12-12T12:16:35.961Z,77.03
2022-12-12T12:19:22.382Z,86.50
2022-12-12T12:22:24.958Z,101.90
2022-12-12T12:25:24.014Z,85.28
2022-12-12T12:28:28.009Z,94.65
2022-12-12T12:31:13.967Z,94.85
2022-12-12T12:34:00.730Z,105.28
2022-12-12T12:37:06.861Z,98.03
2022-12-12T12:40:14.984Z,115.40
2022-12-12T12:43:07.597Z,102.50
2022-12-12T12:45:52.251Z,108.90
2022-12-12T12:48:36.615Z,95.93
2022-12-12T12:51:22.340Z,102.45
2022-12-12T12:54:01.893Z,96.35
2022-12-12T12:56:38.557Z,81.88
2022-12-12T12:59:22.193Z,77.28
2022-12-12T13:01:54.632Z,99.45
2022-12-12T13:04:33.555Z,90.45
2022-12-12T13:07:15.472Z,90.55
2022-12-12T13:10:09.308Z,87.25
2022-12-12T13:12:49.158Z,84.05
2022-12-12T13:15:44.690Z,93.45
2022-12-12T13:18:17.518Z,97.68
2022-12-12T13:21:02.344Z,92.53
2022-12-12T13:24:07.245Z,100.93
2022-12-12T13:26:57.532Z,127.05
2022-12-12T13:29:49.448Z,123.35
2022-12-12T13:32:49.137Z,116.55
2022-12-12T13:35:40.230Z,124.25
2022-12-12T13:38:22.546Z,111.95
2022-12-12T13:41:03.179Z,107.15
2022-12-12T13:46:39.295Z,107.72
2022-12-12T13:49:27.930Z,89.18
2022-12-12T13:52:28.660Z,98.45
2022-12-12T13:58:09.997Z,98.63
2022-12-12T14:00:41.575Z,103.15
2022-12-12T14:03:31.929Z,121.13
2022-12-12T14:06:13.315Z,116.00
2022-12-12T14:08:53.965Z,111.55
2022-12-12T14:14:20.790Z,96.90
2022-12-12T14:16:56.535Z,113.10
2022-12-12T14:19:31.999Z,99.68
2022-12-12T14:22:02.335Z,89.65
2022-12-12T14:24:48.364Z,100.90
2022-12-12T14:27:18.749Z,107.10
2022-12-12T14:29:49.114Z,121.75
2022-12-12T14:32:45.385Z,125.07
2022-12-12T14:35:36.807Z,115.63
2022-12-12T14:38:32.488Z,125.97
2022-12-12T14:41:07.376Z,98.18
2022-12-12T14:43:44.151Z,108.57
2022-12-12T14:46:22.479Z,102.13
2022-12-12T14:49:05.435Z,101.28
2022-12-12T14:51:38.762Z,95.25
2022-12-12T14:54:19.083Z,96.65
2022-12-12T14:57:03.849Z,96.65
2022-12-12T14:59:39.539Z,109.72
2022-12-12T15:02:26.326Z,87.25
2022-12-12T15:05:05.031Z,100.15
2022-12-12T15:07:37.674Z,102.28
2022-12-12T15:10:27.451Z,110.13
2022-12-12T15:12:57.592Z,108.93
2022-12-12T15:15:32.592Z,113.30
2022-12-12T15:18:03.844Z,125.03
2022-12-12T15:20:34.690Z,121.00
2022-12-12T15:23:07.805Z,124.38
2022-12-12T15:25:47.587Z,110.97
2022-12-12T15:28:21.299Z,120.73
2022-12-12T15:30:55.315Z,123.55
2022-12-12T15:33:28.020Z,115.28
2022-12-12T15:36:03.469Z,118.03
2022-12-12T15:38:34.928Z,116.60
2022-12-12T15:41:12.751Z,132.20
2022-12-12T15:43:44.851Z,118.93
2022-12-12T15:46:17.849Z,117.18
2022-12-12T15:48:51.257Z,125.57
2022-12-12T15:51:25.497Z,121.85
2022-12-12T15:53:58.783Z,115.53
2022-12-12T15:56:30.876Z,123.25
2022-12-12T15:59:19.524Z,119.55
2022-12-12T16:01:50.231Z,125.65
2022-12-12T16:04:29.747Z,112.28
2022-12-12T16:07:23.200Z,125.45
2022-12-12T16:10:03.347Z,122.57
2022-12-12T16:13:08.676Z,117.22
2022-12-12T16:15:41.410Z,109.88
2022-12-12T16:18:25.248Z,120.70
2022-12-12T16:20:58.805Z,111.72
2022-12-12T16:23:34.948Z,120.50
2022-12-12T16:26:05.023Z,137.13
2022-12-12T16:28:35.367Z,116.40
2022-12-12T16:31:13.981Z,116.30
2022-12-12T16:33:44.016Z,110.68
2022-12-12T16:36:17.670Z,121.10
2022-12-12T16:38:47.752Z,121.15
2022-12-12T16:41:20.073Z,114.45
2022-12-12T16:43:50.039Z,114.63
2022-12-12T16:46:25.346Z,145.57
2022-12-12T16:49:08.285Z,136.48
2022-12-12T16:51:43.278Z,130.93
2022-12-12T16:54:18.807Z,146.82
2022-12-12T16:56:54.503Z,135.00
2022-12-12T16:59:24.404Z,208.13
2022-12-12T17:01:54.582Z,173.95
2022-12-12T17:04:28.323Z,218.10
2022-12-12T17:07:02.344Z,206.63
2022-12-12T17:09:32.626Z,206.57
2022-12-12T17:12:02.645Z,210.18
2022-12-12T17:14:32.556Z,217.40
2022-12-12T17:17:06.196Z,210.35
2022-12-12T17:19:36.369Z,207.75
2022-12-12T17:22:06.781Z,213.68
2022-12-12T17:24:36.820Z,220.45
2022-12-12T17:27:06.878Z,222.30
2022-12-12T17:29:37.103Z,224.55
2022-12-12T17:32:07.753Z,222.57
2022-12-12T17:37:07.995Z,220.13
2022-12-12T17:39:38.402Z,210.05
2022-12-12T17:42:08.511Z,208.02
2022-12-12T17:44:38.437Z,200.50
2022-12-12T17:47:09.132Z,187.45
2022-12-12T17:52:08.746Z,171.80
2022-12-12T17:54:39.003Z,174.23
2022-12-12T17:57:08.969Z,170.73
2022-12-12T17:59:39.048Z,177.77
2022-12-12T18:02:10.854Z,177.38
2022-12-12T18:04:41.307Z,174.50
2022-12-12T18:07:13.046Z,170.30
2022-12-12T18:09:42.840Z,195.95
2022-12-12T18:12:13.036Z,187.83
2022-12-12T18:14:42.956Z,195.18
2022-12-12T18:17:12.763Z,195.02
2022-12-12T18:19:42.685Z,193.15
2022-12-12T18:22:12.854Z,212.18
2022-12-12T18:24:42.785Z,213.63
2022-12-12T18:27:12.808Z,205.70
2022-12-12T18:29:42.883Z,209.45
2022-12-12T18:32:12.773Z,217.88
2022-12-12T18:34:44.390Z,227.00
2022-12-12T18:37:14.647Z,213.60
2022-12-12T18:39:44.679Z,214.95
2022-12-12T18:42:14.768Z,202.45
2022-12-12T18:44:46.392Z,206.13
2022-12-12T18:47:17.700Z,186.40
2022-12-12T18:49:47.959Z,204.73
2022-12-12T18:52:18.134Z,197.82
2022-12-12T18:54:48.235Z,192.25
2022-12-12T18:57:18.506Z,188.40
2022-12-12T18:59:50.174Z,183.65
2022-12-12T19:02:20.597Z,175.77
2022-12-12T19:04:53.147Z,185.95
2022-12-12T19:07:23.207Z,183.82
2022-12-12T19:09:53.324Z,201.93
2022-12-12T19:12:23.337Z,206.68
2022-12-12T19:15:15.653Z,196.05
2022-12-12T19:17:45.031Z,206.18
2022-12-12T19:20:15.221Z,200.63
2022-12-12T19:22:46.724Z,197.95
2022-12-12T19:25:19.029Z,196.93
2022-12-12T19:27:49.259Z,200.93
2022-12-12T19:30:19.276Z,209.90
2022-12-12T19:32:50.920Z,236.02
2022-12-12T19:35:21.180Z,231.10
2022-12-12T19:37:51.472Z,245.10
2022-12-12T19:40:21.852Z,244.90
2022-12-12T19:42:52.150Z,244.45
2022-12-12T19:45:22.136Z,234.23
2022-12-12T19:47:52.085Z,240.02
2022-12-12T19:50:21.937Z,236.15
2022-12-12T19:52:51.738Z,231.60
2022-12-12T19:55:21.823Z,212.20
2022-12-12T19:57:52.345Z,234.13
2022-12-12T20:00:22.666Z,232.88
2022-12-12T20:02:52.903Z,232.95
2022-12-12T20:05:23.182Z,242.38
2022-12-12T20:07:53.303Z,253.82
2022-12-12T20:10:23.181Z,256.40
2022-12-12T20:12:58.526Z,267.27
2022-12-12T20:15:28.917Z,257.98
2022-12-12T20:18:01.952Z,265.77
2022-12-12T20:20:31.974Z,251.63
2022-12-12T20:23:02.027Z,249.85
2022-12-12T20:25:32.006Z,254.60
2022-12-12T20:28:02.006Z,258.77
2022-12-12T20:30:31.936Z,259.92
2022-12-12T20:33:01.932Z,239.32
2022-12-12T20:35:31.912Z,245.27
2022-12-12T20:38:01.899Z,243.57
2022-12-12T20:40:32.054Z,260.33
2022-12-12T20:43:03.538Z,239.95
2022-12-12T20:45:33.726Z,255.10
2022-12-12T20:48:07.608Z,254.25
2022-12-12T20:50:37.987Z,262.25
2022-12-12T20:53:07.898Z,275.98
2022-12-12T20:55:38.844Z,285.08
2022-12-12T20:58:08.794Z,278.42
2022-12-12T21:00:41.021Z,288.15
2022-12-12T21:03:11.046Z,286.75
2022-12-12T21:05:40.993Z,285.58
2022-12-12T21:08:11.190Z,276.65
2022-12-12T21:10:41.209Z,267.38
2022-12-12T21:13:11.325Z,285.20
2022-12-12T21:15:41.458Z,261.92
2022-12-12T21:18:11.518Z,258.88
2022-12-12T21:20:45.662Z,251.10
2022-12-12T21:23:15.945Z,251.55
2022-12-12T21:25:45.944Z,254.35
2022-12-12T21:28:16.624Z,235.30
2022-12-12T21:30:47.006Z,235.27
2022-12-12T21:33:17.017Z,249.90
2022-12-12T21:35:47.051Z,238.43
2022-12-12T21:38:17.015Z,240.93
2022-12-12T21:40:46.871Z,255.52
2022-12-12T21:43:16.906Z,238.70
2022-12-12T21:45:46.805Z,249.68
2022-12-12T21:48:16.728Z,256.48
2022-12-12T21:50:46.638Z,255.15
2022-12-12T21:53:28.318Z,256.40
2022-12-12T21:56:04.565Z,255.02
2022-12-12T21:58:35.196Z,268.40
2022-12-12T22:01:10.443Z,269.73
2022-12-12T22:03:40.721Z,284.60
2022-12-12T22:06:17.231Z,285.70
2022-12-12T22:08:48.384Z,276.95
2022-12-12T22:11:39.811Z,289.38
2022-12-12T22:14:11.515Z,277.00
2022-12-12T22:16:41.755Z,288.52
2022-12-12T22:19:14.929Z,291.05
2022-12-12T22:21:48.062Z,297.15
2022-12-12T22:24:19.746Z,281.23
2022-12-12T22:26:51.344Z,284.67
2022-12-12T22:29:22.415Z,280.58
2022-12-12T22:31:53.997Z,274.88
2022-12-12T22:34:26.210Z,274.60
2022-12-12T22:36:56.717Z,276.38
2022-12-12T22:39:28.874Z,245.38
2022-12-12T22:41:59.008Z,254.13
2022-12-12T22:44:29.351Z,273.73
2022-12-12T22:46:59.588Z,241.27
2022-12-12T22:49:29.806Z,235.55
2022-12-12T22:52:00.756Z,226.52
2022-12-12T22:54:30.771Z,224.45
2022-12-12T22:57:00.967Z,226.05
2022-12-12T22:59:30.879Z,231.95
2022-12-12T23:02:00.895Z,235.43
2022-12-12T23:04:30.862Z,230.98
2022-12-12T23:07:00.833Z,231.25
2022-12-12T23:09:31.602Z,225.82
2022-12-12T23:14:30.971Z,187.02
2022-12-12T23:17:00.841Z,205.43
2022-12-12T23:19:30.790Z,194.87
2022-12-12T23:22:00.649Z,195.98
2022-12-12T23:24:30.572Z,194.20
2022-12-12T23:27:00.758Z,193.55
2022-12-12T23:29:30.767Z,188.25
2022-12-12T23:32:04.449Z,221.30
2022-12-12T23:34:34.616Z,203.05
2022-12-12T23:37:04.736Z,198.50
2022-12-12T23:39:34.517Z,203.65
2022-12-12T23:42:04.411Z,192.90
2022-12-12T23:44:34.376Z,186.23
2022-12-12T23:47:04.437Z,201.02
2022-12-12T23:49:34.425Z,194.90
2022-12-12T23:52:04.313Z,181.75
2022-12-12T23:54:36.710Z,200.00
2022-12-12T23:57:06.829Z,182.93
2022-12-12T23:59:37.059Z,179.30
